sensor_id;sensor_type;location;lat;lon;timestamp;temperature;humidity
20795;DHT22;28087;-33.874;151.240;2022-11-20T00:00:40;26.10;99.60
20795;DHT22;28087;-33.874;151.240;2022-11-20T00:03:16;26.20;99.70
20795;DHT22;28087;-33.874;151.240;2022-11-20T00:05:52;26.20;99.30
20795;DHT22;28087;-33.874;151.240;2022-11-20T00:08:28;26.20;98.30
20795;DHT22;28087;-33.874;151.240;2022-11-20T00:11:07;26.20;98.70
20795;DHT22;28087;-33.874;151.240;2022-11-20T00:13:46;26.30;98.60
20795;DHT22;28087;-33.874;151.240;2022-11-20T00:16:24;26.30;98.40
20795;DHT22;28087;-33.874;151.240;2022-11-20T00:19:01;26.30;98.90
20795;DHT22;28087;-33.874;151.240;2022-11-20T00:21:36;26.20;97.80
20795;DHT22;28087;-33.874;151.240;2022-11-20T00:24:11;26.30;97.90
20795;DHT22;28087;-33.874;151.240;2022-11-20T00:26:49;26.40;98.30
20795;DHT22;28087;-33.874;151.240;2022-11-20T00:29:24;26.40;97.90
20795;DHT22;28087;-33.874;151.240;2022-11-20T00:32:00;26.40;98.40
20795;DHT22;28087;-33.874;151.240;2022-11-20T00:34:36;26.40;98.90
20795;DHT22;28087;-33.874;151.240;2022-11-20T00:37:11;26.50;98.90
20795;DHT22;28087;-33.874;151.240;2022-11-20T00:39:47;26.40;99.90
20795;DHT22;28087;-33.874;151.240;2022-11-20T00:42:25;26.50;99.90
20795;DHT22;28087;-33.874;151.240;2022-11-20T00:45:01;26.50;98.20
20795;DHT22;28087;-33.874;151.240;2022-11-20T00:47:37;26.50;98.00
20795;DHT22;28087;-33.874;151.240;2022-11-20T00:50:12;26.50;99.00
20795;DHT22;28087;-33.874;151.240;2022-11-20T00:52:48;26.50;98.40
20795;DHT22;28087;-33.874;151.240;2022-11-20T00:55:24;26.60;98.50
20795;DHT22;28087;-33.874;151.240;2022-11-20T00:58:01;26.60;98.40
20795;DHT22;28087;-33.874;151.240;2022-11-20T01:00:43;26.70;97.50
20795;DHT22;28087;-33.874;151.240;2022-11-20T01:03:20;26.80;95.60
20795;DHT22;28087;-33.874;151.240;2022-11-20T01:06:00;26.70;95.40
20795;DHT22;28087;-33.874;151.240;2022-11-20T01:08:36;26.60;97.30
20795;DHT22;28087;-33.874;151.240;2022-11-20T01:11:15;26.60;99.90
20795;DHT22;28087;-33.874;151.240;2022-11-20T01:13:54;26.60;99.90
20795;DHT22;28087;-33.874;151.240;2022-11-20T01:16:31;26.60;99.90
20795;DHT22;28087;-33.874;151.240;2022-11-20T01:19:09;26.50;99.90
20795;DHT22;28087;-33.874;151.240;2022-11-20T01:21:50;26.60;99.90
20795;DHT22;28087;-33.874;151.240;2022-11-20T01:24:27;26.70;98.30
20795;DHT22;28087;-33.874;151.240;2022-11-20T01:27:02;26.70;96.40
20795;DHT22;28087;-33.874;151.240;2022-11-20T01:29:43;26.80;98.30
20795;DHT22;28087;-33.874;151.240;2022-11-20T01:32:18;26.80;95.10
20795;DHT22;28087;-33.874;151.240;2022-11-20T01:34:55;26.90;96.20
20795;DHT22;28087;-33.874;151.240;2022-11-20T01:37:30;26.90;96.50
20795;DHT22;28087;-33.874;151.240;2022-11-20T01:40:07;26.90;96.00
20795;DHT22;28087;-33.874;151.240;2022-11-20T01:42:47;26.80;96.40
20795;DHT22;28087;-33.874;151.240;2022-11-20T01:46:12;26.90;96.00
20795;DHT22;28087;-33.874;151.240;2022-11-20T01:48:53;27.00;93.50
20795;DHT22;28087;-33.874;151.240;2022-11-20T01:51:32;27.00;94.30
20795;DHT22;28087;-33.874;151.240;2022-11-20T01:54:11;27.00;94.90
20795;DHT22;28087;-33.874;151.240;2022-11-20T01:56:49;26.90;97.20
20795;DHT22;28087;-33.874;151.240;2022-11-20T01:59:29;26.90;96.70
20795;DHT22;28087;-33.874;151.240;2022-11-20T02:02:07;26.90;96.40
20795;DHT22;28087;-33.874;151.240;2022-11-20T02:04:44;26.90;96.80
20795;DHT22;28087;-33.874;151.240;2022-11-20T02:07:21;27.00;99.90
20795;DHT22;28087;-33.874;151.240;2022-11-20T02:09:58;27.00;99.90
20795;DHT22;28087;-33.874;151.240;2022-11-20T02:12:34;27.20;95.00
20795;DHT22;28087;-33.874;151.240;2022-11-20T02:15:25;27.30;94.10
20795;DHT22;28087;-33.874;151.240;2022-11-20T02:18:04;27.40;94.50
20795;DHT22;28087;-33.874;151.240;2022-11-20T02:20:41;27.50;93.90
20795;DHT22;28087;-33.874;151.240;2022-11-20T02:23:20;27.50;93.60
20795;DHT22;28087;-33.874;151.240;2022-11-20T02:26:00;27.50;93.20
20795;DHT22;28087;-33.874;151.240;2022-11-20T02:28:36;27.40;93.60
20795;DHT22;28087;-33.874;151.240;2022-11-20T02:31:12;27.40;93.70
20795;DHT22;28087;-33.874;151.240;2022-11-20T02:33:54;27.40;93.20
20795;DHT22;28087;-33.874;151.240;2022-11-20T02:36:29;27.40;93.40
20795;DHT22;28087;-33.874;151.240;2022-11-20T02:39:06;27.50;93.60
20795;DHT22;28087;-33.874;151.240;2022-11-20T02:41:47;27.40;93.40
20795;DHT22;28087;-33.874;151.240;2022-11-20T02:44:23;27.40;93.60
20795;DHT22;28087;-33.874;151.240;2022-11-20T02:46:59;27.40;94.40
20795;DHT22;28087;-33.874;151.240;2022-11-20T02:49:35;27.40;93.80
20795;DHT22;28087;-33.874;151.240;2022-11-20T02:52:11;27.20;94.10
20795;DHT22;28087;-33.874;151.240;2022-11-20T02:54:47;27.20;94.20
20795;DHT22;28087;-33.874;151.240;2022-11-20T02:57:25;27.20;93.80
20795;DHT22;28087;-33.874;151.240;2022-11-20T03:00:02;27.20;99.10
20795;DHT22;28087;-33.874;151.240;2022-11-20T03:02:38;27.10;99.90
20795;DHT22;28087;-33.874;151.240;2022-11-20T03:05:14;27.20;99.80
20795;DHT22;28087;-33.874;151.240;2022-11-20T03:07:50;27.20;99.60
20795;DHT22;28087;-33.874;151.240;2022-11-20T03:10:26;27.10;98.50
20795;DHT22;28087;-33.874;151.240;2022-11-20T03:13:03;27.10;99.90
20795;DHT22;28087;-33.874;151.240;2022-11-20T03:15:39;27.10;98.60
20795;DHT22;28087;-33.874;151.240;2022-11-20T03:18:15;27.10;98.90
20795;DHT22;28087;-33.874;151.240;2022-11-20T03:20:56;27.20;99.60
20795;DHT22;28087;-33.874;151.240;2022-11-20T03:23:32;27.20;99.50
20795;DHT22;28087;-33.874;151.240;2022-11-20T03:26:13;27.20;98.80
20795;DHT22;28087;-33.874;151.240;2022-11-20T03:28:52;27.20;97.10
20795;DHT22;28087;-33.874;151.240;2022-11-20T03:31:28;27.20;96.80
20795;DHT22;28087;-33.874;151.240;2022-11-20T03:34:05;27.10;97.10
20795;DHT22;28087;-33.874;151.240;2022-11-20T03:36:43;27.10;96.60
20795;DHT22;28087;-33.874;151.240;2022-11-20T03:39:19;27.10;99.90
20795;DHT22;28087;-33.874;151.240;2022-11-20T03:41:55;27.20;99.90
20795;DHT22;28087;-33.874;151.240;2022-11-20T03:44:33;27.20;99.90
20795;DHT22;28087;-33.874;151.240;2022-11-20T03:47:09;27.00;99.90
20795;DHT22;28087;-33.874;151.240;2022-11-20T03:49:45;27.00;99.90
20795;DHT22;28087;-33.874;151.240;2022-11-20T03:52:21;26.90;99.90
20795;DHT22;28087;-33.874;151.240;2022-11-20T03:54:57;26.90;99.90
20795;DHT22;28087;-33.874;151.240;2022-11-20T03:57:32;26.80;99.90
20795;DHT22;28087;-33.874;151.240;2022-11-20T04:00:11;26.90;99.90
20795;DHT22;28087;-33.874;151.240;2022-11-20T04:02:47;26.90;99.90
20795;DHT22;28087;-33.874;151.240;2022-11-20T04:05:23;26.90;99.90
20795;DHT22;28087;-33.874;151.240;2022-11-20T04:07:59;26.90;99.90
20795;DHT22;28087;-33.874;151.240;2022-11-20T04:10:35;26.90;99.90
20795;DHT22;28087;-33.874;151.240;2022-11-20T04:21:10;26.80;99.90
20795;DHT22;28087;-33.874;151.240;2022-11-20T04:29:00;27.00;99.90
20795;DHT22;28087;-33.874;151.240;2022-11-20T04:31:38;27.00;99.90
20795;DHT22;28087;-33.874;151.240;2022-11-20T04:34:14;26.90;99.90
20795;DHT22;28087;-33.874;151.240;2022-11-20T04:36:50;26.90;99.90
20795;DHT22;28087;-33.874;151.240;2022-11-20T04:39:25;26.80;99.90
20795;DHT22;28087;-33.874;151.240;2022-11-20T05:08:18;26.40;99.90
20795;DHT22;28087;-33.874;151.240;2022-11-20T05:16:08;26.20;95.40
20795;DHT22;28087;-33.874;151.240;2022-11-20T05:26:37;25.90;99.90
20795;DHT22;28087;-33.874;151.240;2022-11-20T05:29:16;25.80;90.30
20795;DHT22;28087;-33.874;151.240;2022-11-20T05:31:52;25.80;99.90
20795;DHT22;28087;-33.874;151.240;2022-11-20T05:34:29;25.80;99.90
20795;DHT22;28087;-33.874;151.240;2022-11-20T05:47:45;25.70;99.90
20795;DHT22;28087;-33.874;151.240;2022-11-20T05:50:23;25.70;99.90
20795;DHT22;28087;-33.874;151.240;2022-11-20T05:53:00;25.70;99.90
20795;DHT22;28087;-33.874;151.240;2022-11-20T05:55:35;25.70;99.90
20795;DHT22;28087;-33.874;151.240;2022-11-20T05:58:11;25.70;99.90
20795;DHT22;28087;-33.874;151.240;2022-11-20T06:00:48;25.70;99.90
20795;DHT22;28087;-33.874;151.240;2022-11-20T06:03:24;25.60;99.90
20795;DHT22;28087;-33.874;151.240;2022-11-20T06:06:03;25.60;99.90
20795;DHT22;28087;-33.874;151.240;2022-11-20T06:08:39;25.60;99.90
20795;DHT22;28087;-33.874;151.240;2022-11-20T06:11:16;25.60;99.90
20795;DHT22;28087;-33.874;151.240;2022-11-20T06:21:45;25.60;99.90
20795;DHT22;28087;-33.874;151.240;2022-11-20T06:24:22;25.60;99.90
20795;DHT22;28087;-33.874;151.240;2022-11-20T06:26:58;25.60;99.90
20795;DHT22;28087;-33.874;151.240;2022-11-20T06:29:34;25.50;99.90
20795;DHT22;28087;-33.874;151.240;2022-11-20T06:32:09;25.50;99.90
20795;DHT22;28087;-33.874;151.240;2022-11-20T06:34:46;25.50;99.90
20795;DHT22;28087;-33.874;151.240;2022-11-20T06:37:24;25.40;99.90
20795;DHT22;28087;-33.874;151.240;2022-11-20T06:40:00;25.40;99.90
20795;DHT22;28087;-33.874;151.240;2022-11-20T06:42:36;25.30;99.90
20795;DHT22;28087;-33.874;151.240;2022-11-20T06:45:11;25.30;99.90
20795;DHT22;28087;-33.874;151.240;2022-11-20T06:47:47;25.30;99.90
20795;DHT22;28087;-33.874;151.240;2022-11-20T06:50:23;25.30;99.90
20795;DHT22;28087;-33.874;151.240;2022-11-20T06:53:04;25.20;99.90
20795;DHT22;28087;-33.874;151.240;2022-11-20T06:55:43;25.20;99.90
20795;DHT22;28087;-33.874;151.240;2022-11-20T06:58:20;25.20;99.90
20795;DHT22;28087;-33.874;151.240;2022-11-20T07:00:58;25.20;99.90
20795;DHT22;28087;-33.874;151.240;2022-11-20T07:03:34;25.10;99.90
20795;DHT22;28087;-33.874;151.240;2022-11-20T07:06:10;25.10;99.90
20795;DHT22;28087;-33.874;151.240;2022-11-20T07:08:50;25.10;99.90
20795;DHT22;28087;-33.874;151.240;2022-11-20T07:11:27;25.10;99.90
20795;DHT22;28087;-33.874;151.240;2022-11-20T07:14:02;25.10;99.90
20795;DHT22;28087;-33.874;151.240;2022-11-20T07:16:39;25.10;99.90
20795;DHT22;28087;-33.874;151.240;2022-11-20T07:19:15;25.00;99.90
20795;DHT22;28087;-33.874;151.240;2022-11-20T07:21:51;25.00;99.90
20795;DHT22;28087;-33.874;151.240;2022-11-20T07:24:30;24.80;99.90
20795;DHT22;28087;-33.874;151.240;2022-11-20T07:27:06;24.90;99.90
20795;DHT22;28087;-33.874;151.240;2022-11-20T07:29:42;24.90;99.90
20795;DHT22;28087;-33.874;151.240;2022-11-20T07:32:17;24.70;99.90
20795;DHT22;28087;-33.874;151.240;2022-11-20T07:34:53;24.80;99.90
20795;DHT22;28087;-33.874;151.240;2022-11-20T07:37:29;24.60;99.90
20795;DHT22;28087;-33.874;151.240;2022-11-20T07:40:06;24.60;99.90
20795;DHT22;28087;-33.874;151.240;2022-11-20T07:42:48;24.50;99.90
20795;DHT22;28087;-33.874;151.240;2022-11-20T07:45:25;24.50;99.90
20795;DHT22;28087;-33.874;151.240;2022-11-20T07:48:02;24.50;99.90
20795;DHT22;28087;-33.874;151.240;2022-11-20T07:50:38;24.50;99.90
20795;DHT22;28087;-33.874;151.240;2022-11-20T07:53:14;24.50;99.90
20795;DHT22;28087;-33.874;151.240;2022-11-20T07:55:55;24.50;99.90
20795;DHT22;28087;-33.874;151.240;2022-11-20T07:58:35;24.40;99.90
20795;DHT22;28087;-33.874;151.240;2022-11-20T08:01:12;24.40;99.90
20795;DHT22;28087;-33.874;151.240;2022-11-20T08:03:49;24.30;99.90
20795;DHT22;28087;-33.874;151.240;2022-11-20T08:06:25;24.30;99.90
20795;DHT22;28087;-33.874;151.240;2022-11-20T08:09:03;24.30;99.90
20795;DHT22;28087;-33.874;151.240;2022-11-20T08:11:42;24.20;99.20
20795;DHT22;28087;-33.874;151.240;2022-11-20T08:14:33;24.20;99.90
20795;DHT22;28087;-33.874;151.240;2022-11-20T08:17:10;24.20;99.90
20795;DHT22;28087;-33.874;151.240;2022-11-20T08:19:45;24.20;99.90
20795;DHT22;28087;-33.874;151.240;2022-11-20T08:22:21;24.20;99.90
20795;DHT22;28087;-33.874;151.240;2022-11-20T08:24:58;24.00;99.90
20795;DHT22;28087;-33.874;151.240;2022-11-20T08:27:35;24.10;99.90
20795;DHT22;28087;-33.874;151.240;2022-11-20T08:30:12;24.10;99.90
20795;DHT22;28087;-33.874;151.240;2022-11-20T08:35:24;23.90;99.90
20795;DHT22;28087;-33.874;151.240;2022-11-20T08:38:00;23.90;99.90
20795;DHT22;28087;-33.874;151.240;2022-11-20T08:40:36;23.90;99.90
20795;DHT22;28087;-33.874;151.240;2022-11-20T08:43:14;23.70;99.90
20795;DHT22;28087;-33.874;151.240;2022-11-20T08:56:15;23.90;99.90
20795;DHT22;28087;-33.874;151.240;2022-11-20T13:13:12;21.60;99.90
20795;DHT22;28087;-33.874;151.240;2022-11-20T13:15:56;21.60;99.90
20795;DHT22;28087;-33.874;151.240;2022-11-20T13:24:05;21.40;99.90
20795;DHT22;28087;-33.874;151.240;2022-11-20T13:29:18;21.40;99.90
20795;DHT22;28087;-33.874;151.240;2022-11-20T13:32:04;21.30;99.90
20795;DHT22;28087;-33.874;151.240;2022-11-20T13:34:52;21.30;99.90
20795;DHT22;28087;-33.874;151.240;2022-11-20T13:37:38;21.30;99.90
20795;DHT22;28087;-33.874;151.240;2022-11-20T13:40:22;21.30;99.90
20795;DHT22;28087;-33.874;151.240;2022-11-20T13:43:15;21.30;99.90
20795;DHT22;28087;-33.874;151.240;2022-11-20T13:45:58;21.20;99.90
20795;DHT22;28087;-33.874;151.240;2022-11-20T13:48:38;21.20;99.90
20795;DHT22;28087;-33.874;151.240;2022-11-20T13:51:31;21.30;99.90
20795;DHT22;28087;-33.874;151.240;2022-11-20T13:57:57;21.30;99.90
20795;DHT22;28087;-33.874;151.240;2022-11-20T14:00:44;21.20;99.90
20795;DHT22;28087;-33.874;151.240;2022-11-20T14:03:23;21.30;99.90
20795;DHT22;28087;-33.874;151.240;2022-11-20T14:06:26;21.20;99.90
20795;DHT22;28087;-33.874;151.240;2022-11-20T14:09:03;21.20;99.90
20795;DHT22;28087;-33.874;151.240;2022-11-20T14:11:47;21.10;99.90
20795;DHT22;28087;-33.874;151.240;2022-11-20T14:14:23;21.10;99.90
20795;DHT22;28087;-33.874;151.240;2022-11-20T14:17:07;21.00;99.90
20795;DHT22;28087;-33.874;151.240;2022-11-20T14:19:44;21.00;99.90
20795;DHT22;28087;-33.874;151.240;2022-11-20T14:22:24;21.00;99.90
20795;DHT22;28087;-33.874;151.240;2022-11-20T14:25:06;20.90;99.90
20795;DHT22;28087;-33.874;151.240;2022-11-20T14:27:53;21.00;99.90
20795;DHT22;28087;-33.874;151.240;2022-11-20T14:30:37;20.90;99.90
20795;DHT22;28087;-33.874;151.240;2022-11-20T14:33:15;20.80;99.90
20795;DHT22;28087;-33.874;151.240;2022-11-20T14:35:54;20.80;99.90
20795;DHT22;28087;-33.874;151.240;2022-11-20T14:38:33;20.80;99.90
20795;DHT22;28087;-33.874;151.240;2022-11-20T14:41:14;20.70;99.90
20795;DHT22;28087;-33.874;151.240;2022-11-20T14:43:55;20.80;99.90
20795;DHT22;28087;-33.874;151.240;2022-11-20T14:46:32;20.80;99.90
20795;DHT22;28087;-33.874;151.240;2022-11-20T14:49:11;20.70;99.90
20795;DHT22;28087;-33.874;151.240;2022-11-20T14:51:57;20.80;99.90
20795;DHT22;28087;-33.874;151.240;2022-11-20T14:54:44;20.80;99.90
20795;DHT22;28087;-33.874;151.240;2022-11-20T14:57:26;20.70;99.90
20795;DHT22;28087;-33.874;151.240;2022-11-20T15:00:18;20.70;99.90
20795;DHT22;28087;-33.874;151.240;2022-11-20T15:02:55;20.70;99.90
20795;DHT22;28087;-33.874;151.240;2022-11-20T15:05:47;20.60;99.90
20795;DHT22;28087;-33.874;151.240;2022-11-20T15:08:23;20.70;99.90
20795;DHT22;28087;-33.874;151.240;2022-11-20T15:11:01;20.70;99.90
20795;DHT22;28087;-33.874;151.240;2022-11-20T15:13:38;20.70;99.90
20795;DHT22;28087;-33.874;151.240;2022-11-20T15:16:17;20.70;99.90
20795;DHT22;28087;-33.874;151.240;2022-11-20T15:18:54;20.70;99.90
20795;DHT22;28087;-33.874;151.240;2022-11-20T15:21:30;20.70;99.90
20795;DHT22;28087;-33.874;151.240;2022-11-20T15:24:10;20.70;99.90
20795;DHT22;28087;-33.874;151.240;2022-11-20T15:26:48;20.70;99.90
20795;DHT22;28087;-33.874;151.240;2022-11-20T15:29:24;20.70;99.90
20795;DHT22;28087;-33.874;151.240;2022-11-20T15:32:00;20.70;99.90
20795;DHT22;28087;-33.874;151.240;2022-11-20T15:34:44;20.70;99.90
20795;DHT22;28087;-33.874;151.240;2022-11-20T15:37:20;20.70;99.90
20795;DHT22;28087;-33.874;151.240;2022-11-20T15:40:00;20.70;99.90
20795;DHT22;28087;-33.874;151.240;2022-11-20T15:42:38;20.80;99.90
20795;DHT22;28087;-33.874;151.240;2022-11-20T15:45:44;20.80;99.90
20795;DHT22;28087;-33.874;151.240;2022-11-20T15:48:23;20.80;99.90
20795;DHT22;28087;-33.874;151.240;2022-11-20T15:51:02;20.80;99.90
20795;DHT22;28087;-33.874;151.240;2022-11-20T15:53:40;20.80;99.90
20795;DHT22;28087;-33.874;151.240;2022-11-20T15:56:15;20.80;99.90
20795;DHT22;28087;-33.874;151.240;2022-11-20T15:58:53;20.70;99.90
20795;DHT22;28087;-33.874;151.240;2022-11-20T16:01:28;20.70;99.90
20795;DHT22;28087;-33.874;151.240;2022-11-20T16:04:08;20.70;99.90
20795;DHT22;28087;-33.874;151.240;2022-11-20T16:06:45;20.70;99.90
20795;DHT22;28087;-33.874;151.240;2022-11-20T16:09:20;20.70;99.90
20795;DHT22;28087;-33.874;151.240;2022-11-20T16:11:57;20.60;99.90
20795;DHT22;28087;-33.874;151.240;2022-11-20T16:14:36;20.70;99.90
20795;DHT22;28087;-33.874;151.240;2022-11-20T16:17:27;20.60;99.90
20795;DHT22;28087;-33.874;151.240;2022-11-20T16:20:17;20.60;99.90
20795;DHT22;28087;-33.874;151.240;2022-11-20T16:22:53;20.60;99.90
20795;DHT22;28087;-33.874;151.240;2022-11-20T16:25:29;20.50;99.90
20795;DHT22;28087;-33.874;151.240;2022-11-20T16:28:06;20.50;99.90
20795;DHT22;28087;-33.874;151.240;2022-11-20T16:30:50;20.50;99.90
20795;DHT22;28087;-33.874;151.240;2022-11-20T16:33:25;20.50;99.90
20795;DHT22;28087;-33.874;151.240;2022-11-20T16:36:10;20.50;99.90
20795;DHT22;28087;-33.874;151.240;2022-11-20T16:38:49;20.40;99.90
20795;DHT22;28087;-33.874;151.240;2022-11-20T16:41:29;20.40;99.90
20795;DHT22;28087;-33.874;151.240;2022-11-20T16:44:08;20.40;99.90
20795;DHT22;28087;-33.874;151.240;2022-11-20T16:46:46;20.40;99.90
20795;DHT22;28087;-33.874;151.240;2022-11-20T16:49:24;20.30;99.90
20795;DHT22;28087;-33.874;151.240;2022-11-20T16:51:59;20.30;99.90
20795;DHT22;28087;-33.874;151.240;2022-11-20T16:54:35;20.30;99.90
20795;DHT22;28087;-33.874;151.240;2022-11-20T16:57:14;20.30;99.90
20795;DHT22;28087;-33.874;151.240;2022-11-20T16:59:50;20.20;99.90
20795;DHT22;28087;-33.874;151.240;2022-11-20T17:02:34;20.20;99.90
20795;DHT22;28087;-33.874;151.240;2022-11-20T17:05:10;20.20;99.90
20795;DHT22;28087;-33.874;151.240;2022-11-20T17:07:46;20.20;99.90
20795;DHT22;28087;-33.874;151.240;2022-11-20T17:10:23;20.20;99.90
20795;DHT22;28087;-33.874;151.240;2022-11-20T17:13:00;20.10;99.90
20795;DHT22;28087;-33.874;151.240;2022-11-20T17:15:36;20.10;99.90
20795;DHT22;28087;-33.874;151.240;2022-11-20T17:18:13;20.10;99.90
20795;DHT22;28087;-33.874;151.240;2022-11-20T17:20:52;20.10;99.90
20795;DHT22;28087;-33.874;151.240;2022-11-20T17:23:29;20.10;99.90
20795;DHT22;28087;-33.874;151.240;2022-11-20T17:26:07;20.10;99.90
20795;DHT22;28087;-33.874;151.240;2022-11-20T17:28:46;20.20;99.90
20795;DHT22;28087;-33.874;151.240;2022-11-20T17:31:22;20.20;99.90
20795;DHT22;28087;-33.874;151.240;2022-11-20T17:34:00;20.20;99.90
20795;DHT22;28087;-33.874;151.240;2022-11-20T17:36:37;20.10;99.90
20795;DHT22;28087;-33.874;151.240;2022-11-20T17:39:15;20.20;99.90
20795;DHT22;28087;-33.874;151.240;2022-11-20T17:41:52;20.20;99.90
20795;DHT22;28087;-33.874;151.240;2022-11-20T17:44:41;20.20;99.90
20795;DHT22;28087;-33.874;151.240;2022-11-20T17:47:18;20.10;99.90
20795;DHT22;28087;-33.874;151.240;2022-11-20T17:49:57;20.20;99.90
20795;DHT22;28087;-33.874;151.240;2022-11-20T17:52:33;20.20;99.90
20795;DHT22;28087;-33.874;151.240;2022-11-20T17:55:09;20.20;99.90
20795;DHT22;28087;-33.874;151.240;2022-11-20T17:57:44;20.20;99.90
20795;DHT22;28087;-33.874;151.240;2022-11-20T18:00:24;20.10;99.90
20795;DHT22;28087;-33.874;151.240;2022-11-20T18:03:02;20.10;99.90
20795;DHT22;28087;-33.874;151.240;2022-11-20T18:05:39;20.20;99.90
20795;DHT22;28087;-33.874;151.240;2022-11-20T18:08:15;20.10;99.90
20795;DHT22;28087;-33.874;151.240;2022-11-20T18:10:52;20.10;99.90
20795;DHT22;28087;-33.874;151.240;2022-11-20T18:13:27;20.10;99.90
20795;DHT22;28087;-33.874;151.240;2022-11-20T18:16:24;20.10;99.90
20795;DHT22;28087;-33.874;151.240;2022-11-20T18:19:00;20.10;99.90
20795;DHT22;28087;-33.874;151.240;2022-11-20T18:21:38;20.20;99.90
20795;DHT22;28087;-33.874;151.240;2022-11-20T18:24:15;20.10;99.90
20795;DHT22;28087;-33.874;151.240;2022-11-20T18:26:52;20.10;99.90
20795;DHT22;28087;-33.874;151.240;2022-11-20T18:29:29;20.10;99.90
20795;DHT22;28087;-33.874;151.240;2022-11-20T18:32:05;20.10;99.90
20795;DHT22;28087;-33.874;151.240;2022-11-20T18:34:41;20.10;99.90
20795;DHT22;28087;-33.874;151.240;2022-11-20T18:37:18;20.10;99.90
20795;DHT22;28087;-33.874;151.240;2022-11-20T18:39:54;20.10;99.90
20795;DHT22;28087;-33.874;151.240;2022-11-20T18:42:30;20.00;99.90
20795;DHT22;28087;-33.874;151.240;2022-11-20T18:45:23;20.00;99.90
20795;DHT22;28087;-33.874;151.240;2022-11-20T18:47:59;20.00;99.90
20795;DHT22;28087;-33.874;151.240;2022-11-20T18:50:35;20.00;99.90
20795;DHT22;28087;-33.874;151.240;2022-11-20T18:53:13;20.00;99.90
20795;DHT22;28087;-33.874;151.240;2022-11-20T18:55:48;20.00;99.90
20795;DHT22;28087;-33.874;151.240;2022-11-20T18:58:24;20.10;99.90
20795;DHT22;28087;-33.874;151.240;2022-11-20T19:01:05;20.10;99.90
20795;DHT22;28087;-33.874;151.240;2022-11-20T19:03:41;20.10;99.90
20795;DHT22;28087;-33.874;151.240;2022-11-20T19:06:19;20.10;99.90
20795;DHT22;28087;-33.874;151.240;2022-11-20T19:09:00;20.10;99.90
20795;DHT22;28087;-33.874;151.240;2022-11-20T19:11:36;20.10;99.90
20795;DHT22;28087;-33.874;151.240;2022-11-20T19:14:11;20.30;99.90
20795;DHT22;28087;-33.874;151.240;2022-11-20T19:16:47;20.40;99.90
20795;DHT22;28087;-33.874;151.240;2022-11-20T19:19:22;20.50;99.90
20795;DHT22;28087;-33.874;151.240;2022-11-20T19:21:58;20.60;99.90
20795;DHT22;28087;-33.874;151.240;2022-11-20T19:24:37;20.70;99.90
20795;DHT22;28087;-33.874;151.240;2022-11-20T19:27:13;20.80;99.90
20795;DHT22;28087;-33.874;151.240;2022-11-20T19:29:49;20.90;99.90
20795;DHT22;28087;-33.874;151.240;2022-11-20T20:27:21;22.30;99.90
20795;DHT22;28087;-33.874;151.240;2022-11-20T20:29:57;22.40;99.90
20795;DHT22;28087;-33.874;151.240;2022-11-20T20:32:33;22.40;99.90
20795;DHT22;28087;-33.874;151.240;2022-11-20T20:35:09;22.40;99.90
20795;DHT22;28087;-33.874;151.240;2022-11-20T20:37:45;22.40;99.90
20795;DHT22;28087;-33.874;151.240;2022-11-20T21:06:39;23.40;99.90
20795;DHT22;28087;-33.874;151.240;2022-11-20T21:09:16;23.50;99.90
20795;DHT22;28087;-33.874;151.240;2022-11-20T21:11:53;23.50;99.90
20795;DHT22;28087;-33.874;151.240;2022-11-20T21:14:31;23.50;99.90
20795;DHT22;28087;-33.874;151.240;2022-11-20T21:17:08;23.50;99.90
20795;DHT22;28087;-33.874;151.240;2022-11-20T21:19:45;23.60;99.90
20795;DHT22;28087;-33.874;151.240;2022-11-20T21:22:21;23.70;99.90
20795;DHT22;28087;-33.874;151.240;2022-11-20T21:24:55;23.70;99.90
20795;DHT22;28087;-33.874;151.240;2022-11-20T21:30:11;23.80;99.90
20795;DHT22;28087;-33.874;151.240;2022-11-20T21:32:47;23.90;99.90
20795;DHT22;28087;-33.874;151.240;2022-11-20T21:35:23;23.90;99.90
20795;DHT22;28087;-33.874;151.240;2022-11-20T21:38:00;24.00;99.90
20795;DHT22;28087;-33.874;151.240;2022-11-20T21:40:36;24.00;99.90
20795;DHT22;28087;-33.874;151.240;2022-11-20T21:43:12;24.00;98.50
20795;DHT22;28087;-33.874;151.240;2022-11-20T21:45:58;23.90;97.70
20795;DHT22;28087;-33.874;151.240;2022-11-20T21:48:36;23.90;97.90
20795;DHT22;28087;-33.874;151.240;2022-11-20T21:51:14;24.00;98.40
20795;DHT22;28087;-33.874;151.240;2022-11-20T21:53:51;23.80;97.30
20795;DHT22;28087;-33.874;151.240;2022-11-20T21:56:27;23.80;97.00
20795;DHT22;28087;-33.874;151.240;2022-11-20T21:59:03;23.90;98.00
20795;DHT22;28087;-33.874;151.240;2022-11-20T22:01:40;24.00;97.60
20795;DHT22;28087;-33.874;151.240;2022-11-20T22:04:17;24.00;96.60
20795;DHT22;28087;-33.874;151.240;2022-11-20T22:06:55;24.00;96.60
20795;DHT22;28087;-33.874;151.240;2022-11-20T22:09:31;24.10;96.80
20795;DHT22;28087;-33.874;151.240;2022-11-20T22:12:07;24.10;96.60
20795;DHT22;28087;-33.874;151.240;2022-11-20T22:14:45;24.20;96.10
20795;DHT22;28087;-33.874;151.240;2022-11-20T22:17:21;24.30;96.80
20795;DHT22;28087;-33.874;151.240;2022-11-20T22:20:18;24.30;96.60
20795;DHT22;28087;-33.874;151.240;2022-11-20T22:22:55;24.10;95.90
20795;DHT22;28087;-33.874;151.240;2022-11-20T22:25:31;24.10;96.20
20795;DHT22;28087;-33.874;151.240;2022-11-20T22:28:08;24.00;97.50
20795;DHT22;28087;-33.874;151.240;2022-11-20T22:30:46;24.20;96.60
20795;DHT22;28087;-33.874;151.240;2022-11-20T22:33:23;24.20;95.60
20795;DHT22;28087;-33.874;151.240;2022-11-20T22:36:02;24.30;95.60
20795;DHT22;28087;-33.874;151.240;2022-11-20T22:38:39;24.20;95.80
20795;DHT22;28087;-33.874;151.240;2022-11-20T22:41:15;24.20;96.50
20795;DHT22;28087;-33.874;151.240;2022-11-20T22:43:54;24.00;95.30
20795;DHT22;28087;-33.874;151.240;2022-11-20T22:46:33;24.00;98.50
20795;DHT22;28087;-33.874;151.240;2022-11-20T22:49:11;23.90;99.90
20795;DHT22;28087;-33.874;151.240;2022-11-20T22:51:47;24.00;99.90
20795;DHT22;28087;-33.874;151.240;2022-11-20T22:54:24;24.10;99.90
20795;DHT22;28087;-33.874;151.240;2022-11-20T22:57:00;24.10;99.90
20795;DHT22;28087;-33.874;151.240;2022-11-20T22:59:36;24.30;99.90
20795;DHT22;28087;-33.874;151.240;2022-11-20T23:02:13;24.30;98.90
20795;DHT22;28087;-33.874;151.240;2022-11-20T23:04:51;24.10;99.90
20795;DHT22;28087;-33.874;151.240;2022-11-20T23:07:29;24.20;99.90